sensor_id;sensor_type;location;lat;lon;timestamp;temperature;humidity
827;DHT22;395;48.132;11.608;2023-01-01T00:01:08;13.90;1.00
827;DHT22;395;48.132;11.608;2023-01-01T00:03:34;13.90;1.00
827;DHT22;395;48.132;11.608;2023-01-01T00:06:11;13.90;1.00
827;DHT22;395;48.132;11.608;2023-01-01T00:08:37;13.90;1.00
827;DHT22;395;48.132;11.608;2023-01-01T00:11:05;13.90;1.00
827;DHT22;395;48.132;11.608;2023-01-01T00:13:31;13.90;1.00
827;DHT22;395;48.132;11.608;2023-01-01T00:16:11;13.90;1.00
827;DHT22;395;48.132;11.608;2023-01-01T00:18:37;13.90;1.00
827;DHT22;395;48.132;11.608;2023-01-01T00:21:04;13.90;1.00
827;DHT22;395;48.132;11.608;2023-01-01T00:23:31;13.90;1.00
827;DHT22;395;48.132;11.608;2023-01-01T00:25:57;13.90;1.00
827;DHT22;395;48.132;11.608;2023-01-01T00:28:22;13.90;1.00
827;DHT22;395;48.132;11.608;2023-01-01T00:30:48;13.90;1.00
827;DHT22;395;48.132;11.608;2023-01-01T00:33:13;13.90;1.00
827;DHT22;395;48.132;11.608;2023-01-01T00:35:39;13.90;1.00
827;DHT22;395;48.132;11.608;2023-01-01T00:38:05;13.90;1.00
827;DHT22;395;48.132;11.608;2023-01-01T00:40:31;13.90;1.00
827;DHT22;395;48.132;11.608;2023-01-01T00:42:57;13.90;1.00
827;DHT22;395;48.132;11.608;2023-01-01T00:45:22;13.80;1.00
827;DHT22;395;48.132;11.608;2023-01-01T00:47:50;13.80;1.00
827;DHT22;395;48.132;11.608;2023-01-01T00:50:16;13.80;1.00
827;DHT22;395;48.132;11.608;2023-01-01T00:52:42;13.80;1.00
827;DHT22;395;48.132;11.608;2023-01-01T00:55:07;13.80;1.00
827;DHT22;395;48.132;11.608;2023-01-01T00:57:33;13.80;1.00
827;DHT22;395;48.132;11.608;2023-01-01T00:59:59;13.80;1.00
827;DHT22;395;48.132;11.608;2023-01-01T01:02:25;13.80;1.00
827;DHT22;395;48.132;11.608;2023-01-01T01:04:50;13.80;1.00
827;DHT22;395;48.132;11.608;2023-01-01T01:07:16;13.80;1.00
827;DHT22;395;48.132;11.608;2023-01-01T01:09:42;13.80;1.00
827;DHT22;395;48.132;11.608;2023-01-01T01:12:07;13.80;1.00
827;DHT22;395;48.132;11.608;2023-01-01T01:14:33;13.80;1.00
827;DHT22;395;48.132;11.608;2023-01-01T01:16:58;13.80;1.00
827;DHT22;395;48.132;11.608;2023-01-01T01:19:24;13.80;1.00
827;DHT22;395;48.132;11.608;2023-01-01T01:21:50;13.80;1.00
827;DHT22;395;48.132;11.608;2023-01-01T01:24:16;13.90;1.00
827;DHT22;395;48.132;11.608;2023-01-01T01:26:42;13.90;1.00
827;DHT22;395;48.132;11.608;2023-01-01T01:29:08;13.90;1.00
827;DHT22;395;48.132;11.608;2023-01-01T01:31:34;13.90;1.00
827;DHT22;395;48.132;11.608;2023-01-01T01:34:00;13.90;1.00
827;DHT22;395;48.132;11.608;2023-01-01T01:36:27;13.90;1.00
827;DHT22;395;48.132;11.608;2023-01-01T01:38:53;13.90;1.00
827;DHT22;395;48.132;11.608;2023-01-01T01:41:22;13.90;1.00
827;DHT22;395;48.132;11.608;2023-01-01T01:44:05;13.90;1.00
827;DHT22;395;48.132;11.608;2023-01-01T01:46:34;13.90;1.00
827;DHT22;395;48.132;11.608;2023-01-01T01:49:13;13.90;1.00
827;DHT22;395;48.132;11.608;2023-01-01T01:51:39;13.90;1.00
827;DHT22;395;48.132;11.608;2023-01-01T01:54:12;13.80;1.00
827;DHT22;395;48.132;11.608;2023-01-01T01:56:48;13.80;1.00
827;DHT22;395;48.132;11.608;2023-01-01T01:59:16;13.80;1.00
827;DHT22;395;48.132;11.608;2023-01-01T02:01:43;13.80;1.00
827;DHT22;395;48.132;11.608;2023-01-01T02:04:09;13.80;1.00
827;DHT22;395;48.132;11.608;2023-01-01T02:06:37;13.80;1.00
827;DHT22;395;48.132;11.608;2023-01-01T02:09:05;13.80;1.00
827;DHT22;395;48.132;11.608;2023-01-01T02:11:32;13.80;1.00
827;DHT22;395;48.132;11.608;2023-01-01T02:13:59;13.80;1.00
827;DHT22;395;48.132;11.608;2023-01-01T02:16:41;13.80;1.00
827;DHT22;395;48.132;11.608;2023-01-01T02:19:37;13.80;1.00
827;DHT22;395;48.132;11.608;2023-01-01T02:25:43;13.70;1.00
827;DHT22;395;48.132;11.608;2023-01-01T02:28:39;13.70;1.00
827;DHT22;395;48.132;11.608;2023-01-01T02:31:12;13.70;1.00
827;DHT22;395;48.132;11.608;2023-01-01T02:33:39;13.70;1.00
827;DHT22;395;48.132;11.608;2023-01-01T02:36:07;13.70;1.00
827;DHT22;395;48.132;11.608;2023-01-01T02:38:37;13.70;1.00
827;DHT22;395;48.132;11.608;2023-01-01T02:41:13;13.70;1.00
827;DHT22;395;48.132;11.608;2023-01-01T02:43:41;13.70;1.00
827;DHT22;395;48.132;11.608;2023-01-01T02:46:09;13.70;1.00
827;DHT22;395;48.132;11.608;2023-01-01T02:56:50;13.70;1.00
827;DHT22;395;48.132;11.608;2023-01-01T03:02:23;13.70;1.00
827;DHT22;395;48.132;11.608;2023-01-01T03:07:52;13.70;1.00
827;DHT22;395;48.132;11.608;2023-01-01T03:11:20;13.70;1.00
827;DHT22;395;48.132;11.608;2023-01-01T03:18:36;13.70;1.00
827;DHT22;395;48.132;11.608;2023-01-01T03:21:04;13.60;1.00
827;DHT22;395;48.132;11.608;2023-01-01T03:23:37;13.70;1.00
827;DHT22;395;48.132;11.608;2023-01-01T03:26:09;13.70;1.00
827;DHT22;395;48.132;11.608;2023-01-01T03:28:53;13.70;1.00
827;DHT22;395;48.132;11.608;2023-01-01T03:31:23;13.70;1.00
827;DHT22;395;48.132;11.608;2023-01-01T03:33:55;13.70;1.00
827;DHT22;395;48.132;11.608;2023-01-01T03:36:28;13.60;1.00
827;DHT22;395;48.132;11.608;2023-01-01T03:38:59;13.60;1.00
827;DHT22;395;48.132;11.608;2023-01-01T03:41:39;13.60;1.00
827;DHT22;395;48.132;11.608;2023-01-01T03:44:34;13.60;1.00
827;DHT22;395;48.132;11.608;2023-01-01T03:47:04;13.60;1.00
827;DHT22;395;48.132;11.608;2023-01-01T03:49:30;13.60;1.00
827;DHT22;395;48.132;11.608;2023-01-01T03:52:20;13.60;1.00
827;DHT22;395;48.132;11.608;2023-01-01T04:00:27;13.60;1.00
827;DHT22;395;48.132;11.608;2023-01-01T04:05:25;13.60;1.00
827;DHT22;395;48.132;11.608;2023-01-01T04:07:53;13.60;1.00
827;DHT22;395;48.132;11.608;2023-01-01T04:10:19;13.60;1.00
827;DHT22;395;48.132;11.608;2023-01-01T04:12:50;13.60;1.00
827;DHT22;395;48.132;11.608;2023-01-01T04:15:19;13.60;1.00
827;DHT22;395;48.132;11.608;2023-01-01T04:17:45;13.60;1.00
827;DHT22;395;48.132;11.608;2023-01-01T04:20:11;13.60;1.00
827;DHT22;395;48.132;11.608;2023-01-01T04:22:37;13.60;1.00
827;DHT22;395;48.132;11.608;2023-01-01T04:25:04;13.60;1.00
827;DHT22;395;48.132;11.608;2023-01-01T04:27:30;13.50;1.00
827;DHT22;395;48.132;11.608;2023-01-01T04:29:55;13.50;1.00
827;DHT22;395;48.132;11.608;2023-01-01T04:32:21;13.50;1.00
827;DHT22;395;48.132;11.608;2023-01-01T04:34:47;13.50;1.00
827;DHT22;395;48.132;11.608;2023-01-01T04:37:12;13.50;1.00
827;DHT22;395;48.132;11.608;2023-01-01T04:39:39;13.50;1.00
827;DHT22;395;48.132;11.608;2023-01-01T04:42:04;13.50;1.00
827;DHT22;395;48.132;11.608;2023-01-01T04:44:30;13.50;1.00
827;DHT22;395;48.132;11.608;2023-01-01T04:46:56;13.50;1.00
827;DHT22;395;48.132;11.608;2023-01-01T04:49:21;13.40;1.00
827;DHT22;395;48.132;11.608;2023-01-01T04:51:47;13.40;1.00
827;DHT22;395;48.132;11.608;2023-01-01T04:54:13;13.40;1.00
827;DHT22;395;48.132;11.608;2023-01-01T04:56:38;13.40;1.00
827;DHT22;395;48.132;11.608;2023-01-01T04:59:04;13.30;1.00
827;DHT22;395;48.132;11.608;2023-01-01T05:01:30;13.30;1.00
827;DHT22;395;48.132;11.608;2023-01-01T05:03:57;13.30;1.00
827;DHT22;395;48.132;11.608;2023-01-01T05:06:23;13.30;1.00
827;DHT22;395;48.132;11.608;2023-01-01T05:08:52;13.30;1.00
827;DHT22;395;48.132;11.608;2023-01-01T05:11:27;13.30;1.00
827;DHT22;395;48.132;11.608;2023-01-01T05:13:57;13.20;1.00
827;DHT22;395;48.132;11.608;2023-01-01T05:16:31;13.20;1.00
827;DHT22;395;48.132;11.608;2023-01-01T05:18:57;13.20;1.00
827;DHT22;395;48.132;11.608;2023-01-01T05:21:28;13.20;1.00
827;DHT22;395;48.132;11.608;2023-01-01T05:23:57;13.20;1.00
827;DHT22;395;48.132;11.608;2023-01-01T05:26:26;13.20;1.00
827;DHT22;395;48.132;11.608;2023-01-01T05:28:53;13.20;1.00
827;DHT22;395;48.132;11.608;2023-01-01T05:31:21;13.10;1.00
827;DHT22;395;48.132;11.608;2023-01-01T05:33:47;13.10;1.00
827;DHT22;395;48.132;11.608;2023-01-01T05:36:16;13.10;1.00
827;DHT22;395;48.132;11.608;2023-01-01T05:38:42;13.10;1.00
827;DHT22;395;48.132;11.608;2023-01-01T05:41:09;13.10;1.00
827;DHT22;395;48.132;11.608;2023-01-01T05:43:36;13.10;1.00
827;DHT22;395;48.132;11.608;2023-01-01T05:46:05;13.20;1.00
827;DHT22;395;48.132;11.608;2023-01-01T05:48:31;13.20;1.00
827;DHT22;395;48.132;11.608;2023-01-01T05:51:08;13.20;1.00
827;DHT22;395;48.132;11.608;2023-01-01T05:53:34;13.20;1.00
827;DHT22;395;48.132;11.608;2023-01-01T05:56:00;13.20;1.00
827;DHT22;395;48.132;11.608;2023-01-01T05:58:27;13.20;1.00
827;DHT22;395;48.132;11.608;2023-01-01T06:00:53;13.20;1.00
827;DHT22;395;48.132;11.608;2023-01-01T06:03:19;13.20;1.00
827;DHT22;395;48.132;11.608;2023-01-01T06:05:45;13.20;1.00
827;DHT22;395;48.132;11.608;2023-01-01T06:08:11;13.20;1.00
827;DHT22;395;48.132;11.608;2023-01-01T06:10:37;13.20;1.00
827;DHT22;395;48.132;11.608;2023-01-01T06:13:03;13.20;1.00
827;DHT22;395;48.132;11.608;2023-01-01T06:15:28;13.20;1.00
827;DHT22;395;48.132;11.608;2023-01-01T06:17:54;13.20;1.00
827;DHT22;395;48.132;11.608;2023-01-01T06:20:20;13.30;1.00
827;DHT22;395;48.132;11.608;2023-01-01T06:22:45;13.30;1.00
827;DHT22;395;48.132;11.608;2023-01-01T06:25:11;13.30;1.00
827;DHT22;395;48.132;11.608;2023-01-01T06:27:37;13.30;1.00
827;DHT22;395;48.132;11.608;2023-01-01T06:30:04;13.40;1.00
827;DHT22;395;48.132;11.608;2023-01-01T06:32:30;13.40;1.00
827;DHT22;395;48.132;11.608;2023-01-01T06:34:56;13.40;1.00
827;DHT22;395;48.132;11.608;2023-01-01T06:37:21;13.40;1.00
827;DHT22;395;48.132;11.608;2023-01-01T06:39:47;13.40;1.00
827;DHT22;395;48.132;11.608;2023-01-01T06:42:13;13.40;1.00
827;DHT22;395;48.132;11.608;2023-01-01T06:44:39;13.50;1.00
827;DHT22;395;48.132;11.608;2023-01-01T06:47:05;13.50;1.00
827;DHT22;395;48.132;11.608;2023-01-01T06:49:30;13.50;1.00
827;DHT22;395;48.132;11.608;2023-01-01T06:51:56;13.50;1.00
827;DHT22;395;48.132;11.608;2023-01-01T06:54:22;13.50;1.00
827;DHT22;395;48.132;11.608;2023-01-01T06:56:47;13.50;1.00
827;DHT22;395;48.132;11.608;2023-01-01T06:59:15;13.50;1.00
827;DHT22;395;48.132;11.608;2023-01-01T07:01:41;13.50;1.00
827;DHT22;395;48.132;11.608;2023-01-01T07:04:10;13.50;1.00
827;DHT22;395;48.132;11.608;2023-01-01T07:06:37;13.50;1.00
827;DHT22;395;48.132;11.608;2023-01-01T07:09:04;13.50;1.00
827;DHT22;395;48.132;11.608;2023-01-01T07:11:29;13.50;1.00
827;DHT22;395;48.132;11.608;2023-01-01T07:13:55;13.50;1.00
827;DHT22;395;48.132;11.608;2023-01-01T07:16:22;13.50;1.00
827;DHT22;395;48.132;11.608;2023-01-01T07:18:48;13.50;1.00
827;DHT22;395;48.132;11.608;2023-01-01T07:21:30;13.50;1.00
827;DHT22;395;48.132;11.608;2023-01-01T07:24:02;13.50;1.00
827;DHT22;395;48.132;11.608;2023-01-01T07:26:29;13.50;1.00
827;DHT22;395;48.132;11.608;2023-01-01T07:28:55;13.50;1.00
827;DHT22;395;48.132;11.608;2023-01-01T07:31:21;13.50;1.00
827;DHT22;395;48.132;11.608;2023-01-01T07:33:46;13.50;1.00
827;DHT22;395;48.132;11.608;2023-01-01T07:36:12;13.50;1.00
827;DHT22;395;48.132;11.608;2023-01-01T07:38:39;13.50;1.00
827;DHT22;395;48.132;11.608;2023-01-01T07:41:04;13.50;1.00
827;DHT22;395;48.132;11.608;2023-01-01T07:43:30;13.50;1.00
827;DHT22;395;48.132;11.608;2023-01-01T07:45:57;13.50;1.00
827;DHT22;395;48.132;11.608;2023-01-01T07:48:23;13.50;1.00
827;DHT22;395;48.132;11.608;2023-01-01T07:50:49;13.50;1.00
827;DHT22;395;48.132;11.608;2023-01-01T07:53:15;13.50;1.00
827;DHT22;395;48.132;11.608;2023-01-01T07:55:41;13.50;1.00
827;DHT22;395;48.132;11.608;2023-01-01T07:58:07;13.50;1.00
827;DHT22;395;48.132;11.608;2023-01-01T08:00:33;13.50;1.00
827;DHT22;395;48.132;11.608;2023-01-01T08:02:58;13.50;1.00
827;DHT22;395;48.132;11.608;2023-01-01T08:05:24;13.50;1.00
827;DHT22;395;48.132;11.608;2023-01-01T08:07:50;13.50;1.00
827;DHT22;395;48.132;11.608;2023-01-01T08:10:17;13.50;1.00
827;DHT22;395;48.132;11.608;2023-01-01T08:12:44;13.50;1.00
827;DHT22;395;48.132;11.608;2023-01-01T08:15:10;13.60;1.00
827;DHT22;395;48.132;11.608;2023-01-01T08:17:36;13.60;1.00
827;DHT22;395;48.132;11.608;2023-01-01T08:20:02;13.60;1.00
827;DHT22;395;48.132;11.608;2023-01-01T08:22:28;13.60;1.00
827;DHT22;395;48.132;11.608;2023-01-01T08:24:54;13.60;1.00
827;DHT22;395;48.132;11.608;2023-01-01T08:27:19;13.60;1.00
827;DHT22;395;48.132;11.608;2023-01-01T08:29:45;13.60;1.00
827;DHT22;395;48.132;11.608;2023-01-01T08:32:12;14.10;1.00
827;DHT22;395;48.132;11.608;2023-01-01T08:34:37;13.60;1.00
827;DHT22;395;48.132;11.608;2023-01-01T08:37:04;13.60;1.00
827;DHT22;395;48.132;11.608;2023-01-01T08:39:29;13.60;1.00
827;DHT22;395;48.132;11.608;2023-01-01T08:41:55;13.60;1.00
827;DHT22;395;48.132;11.608;2023-01-01T08:44:21;13.60;1.00
827;DHT22;395;48.132;11.608;2023-01-01T08:46:47;13.60;1.00
827;DHT22;395;48.132;11.608;2023-01-01T08:49:12;13.70;1.00
827;DHT22;395;48.132;11.608;2023-01-01T08:51:38;13.70;1.00
827;DHT22;395;48.132;11.608;2023-01-01T08:54:04;13.70;1.00
827;DHT22;395;48.132;11.608;2023-01-01T08:56:29;13.70;1.00
827;DHT22;395;48.132;11.608;2023-01-01T08:58:55;13.80;1.00
827;DHT22;395;48.132;11.608;2023-01-01T09:01:21;13.80;1.00
827;DHT22;395;48.132;11.608;2023-01-01T09:03:47;13.80;1.00
827;DHT22;395;48.132;11.608;2023-01-01T09:06:14;13.90;1.00
827;DHT22;395;48.132;11.608;2023-01-01T09:08:39;13.90;1.00
827;DHT22;395;48.132;11.608;2023-01-01T09:11:05;13.90;1.00
827;DHT22;395;48.132;11.608;2023-01-01T09:13:31;13.90;1.00
827;DHT22;395;48.132;11.608;2023-01-01T09:15:58;14.00;1.00
827;DHT22;395;48.132;11.608;2023-01-01T09:18:24;14.00;1.00
827;DHT22;395;48.132;11.608;2023-01-01T09:20:50;14.00;1.00
827;DHT22;395;48.132;11.608;2023-01-01T09:23:16;14.00;1.00
827;DHT22;395;48.132;11.608;2023-01-01T09:25:41;14.00;1.00
827;DHT22;395;48.132;11.608;2023-01-01T09:28:10;14.10;1.00
827;DHT22;395;48.132;11.608;2023-01-01T09:30:36;14.10;1.00
827;DHT22;395;48.132;11.608;2023-01-01T09:33:03;14.10;1.00
827;DHT22;395;48.132;11.608;2023-01-01T09:35:29;14.10;1.00
827;DHT22;395;48.132;11.608;2023-01-01T09:37:55;14.20;1.00
827;DHT22;395;48.132;11.608;2023-01-01T09:43:05;14.20;1.00
827;DHT22;395;48.132;11.608;2023-01-01T09:45:39;14.20;1.00
827;DHT22;395;48.132;11.608;2023-01-01T09:48:11;14.20;1.00
827;DHT22;395;48.132;11.608;2023-01-01T09:50:41;14.30;1.00
827;DHT22;395;48.132;11.608;2023-01-01T09:55:56;14.30;1.00
827;DHT22;395;48.132;11.608;2023-01-01T09:58:35;14.30;1.00
827;DHT22;395;48.132;11.608;2023-01-01T10:03:56;14.30;1.00
827;DHT22;395;48.132;11.608;2023-01-01T10:06:29;14.30;1.00
827;DHT22;395;48.132;11.608;2023-01-01T10:14:41;14.40;1.00
827;DHT22;395;48.132;11.608;2023-01-01T10:17:17;14.40;1.00
827;DHT22;395;48.132;11.608;2023-01-01T10:19:50;14.50;1.00
827;DHT22;395;48.132;11.608;2023-01-01T10:22:37;14.50;1.00
827;DHT22;395;48.132;11.608;2023-01-01T10:25:14;14.50;1.00
827;DHT22;395;48.132;11.608;2023-01-01T10:27:44;14.50;1.00
827;DHT22;395;48.132;11.608;2023-01-01T10:30:19;14.50;1.00
827;DHT22;395;48.132;11.608;2023-01-01T10:32:47;14.60;1.00
827;DHT22;395;48.132;11.608;2023-01-01T10:35:19;14.50;1.00
827;DHT22;395;48.132;11.608;2023-01-01T10:37:45;14.60;1.00
827;DHT22;395;48.132;11.608;2023-01-01T10:40:18;14.60;1.00
827;DHT22;395;48.132;11.608;2023-01-01T10:42:48;14.60;1.00
827;DHT22;395;48.132;11.608;2023-01-01T10:45:15;14.60;1.00
827;DHT22;395;48.132;11.608;2023-01-01T10:48:08;14.70;1.00
827;DHT22;395;48.132;11.608;2023-01-01T10:56:04;14.70;1.00
827;DHT22;395;48.132;11.608;2023-01-01T11:01:01;14.80;1.00
827;DHT22;395;48.132;11.608;2023-01-01T11:03:27;14.80;1.00
827;DHT22;395;48.132;11.608;2023-01-01T11:08:58;14.90;1.00
827;DHT22;395;48.132;11.608;2023-01-01T11:11:30;14.90;1.00
827;DHT22;395;48.132;11.608;2023-01-01T11:13:58;14.90;1.00
827;DHT22;395;48.132;11.608;2023-01-01T11:16:26;14.90;1.00
827;DHT22;395;48.132;11.608;2023-01-01T11:19:03;15.00;1.00
827;DHT22;395;48.132;11.608;2023-01-01T11:21:30;15.00;1.00
827;DHT22;395;48.132;11.608;2023-01-01T11:26:47;15.10;1.00
827;DHT22;395;48.132;11.608;2023-01-01T11:31:43;15.10;1.00
827;DHT22;395;48.132;11.608;2023-01-01T11:36:51;15.10;1.00
827;DHT22;395;48.132;11.608;2023-01-01T11:39:26;15.10;1.00
827;DHT22;395;48.132;11.608;2023-01-01T11:41:55;15.20;1.00
827;DHT22;395;48.132;11.608;2023-01-01T11:47:03;15.20;1.00
827;DHT22;395;48.132;11.608;2023-01-01T11:49:30;15.20;1.00
827;DHT22;395;48.132;11.608;2023-01-01T11:51:57;15.20;1.00
827;DHT22;395;48.132;11.608;2023-01-01T11:54:29;15.40;1.00
827;DHT22;395;48.132;11.608;2023-01-01T11:59:42;15.30;1.00
827;DHT22;395;48.132;11.608;2023-01-01T12:02:14;15.30;1.00
827;DHT22;395;48.132;11.608;2023-01-01T12:04:47;15.40;1.00
827;DHT22;395;48.132;11.608;2023-01-01T12:07:35;15.40;1.00
827;DHT22;395;48.132;11.608;2023-01-01T12:10:13;15.50;1.00
827;DHT22;395;48.132;11.608;2023-01-01T12:13:00;15.50;1.00
827;DHT22;395;48.132;11.608;2023-01-01T12:15:40;15.50;1.00
827;DHT22;395;48.132;11.608;2023-01-01T12:21:30;15.50;1.00
827;DHT22;395;48.132;11.608;2023-01-01T12:23:57;15.60;1.00
827;DHT22;395;48.132;11.608;2023-01-01T12:26:30;15.60;1.00
827;DHT22;395;48.132;11.608;2023-01-01T12:29:25;15.60;1.00
827;DHT22;395;48.132;11.608;2023-01-01T12:35:00;15.60;1.00
827;DHT22;395;48.132;11.608;2023-01-01T12:37:38;15.70;1.00
827;DHT22;395;48.132;11.608;2023-01-01T12:53:40;15.70;1.00
827;DHT22;395;48.132;11.608;2023-01-01T12:58:59;15.70;1.00
827;DHT22;395;48.132;11.608;2023-01-01T13:01:30;15.80;1.00
827;DHT22;395;48.132;11.608;2023-01-01T13:03:59;15.80;1.00
827;DHT22;395;48.132;11.608;2023-01-01T13:06:37;15.80;1.00
827;DHT22;395;48.132;11.608;2023-01-01T13:09:14;15.80;1.00
827;DHT22;395;48.132;11.608;2023-01-01T13:11:42;15.90;1.00
827;DHT22;395;48.132;11.608;2023-01-01T13:14:09;15.80;1.00
827;DHT22;395;48.132;11.608;2023-01-01T13:16:37;15.80;1.00
827;DHT22;395;48.132;11.608;2023-01-01T13:19:04;15.80;1.00
827;DHT22;395;48.132;11.608;2023-01-01T13:21:30;15.80;1.00
827;DHT22;395;48.132;11.608;2023-01-01T13:24:03;15.90;1.00
827;DHT22;395;48.132;11.608;2023-01-01T13:26:31;15.80;1.00
827;DHT22;395;48.132;11.608;2023-01-01T13:42:45;15.40;1.00
827;DHT22;395;48.132;11.608;2023-01-01T13:45:24;16.00;1.00
827;DHT22;395;48.132;11.608;2023-01-01T13:48:19;16.10;1.00
827;DHT22;395;48.132;11.608;2023-01-01T13:59:04;16.10;1.00
827;DHT22;395;48.132;11.608;2023-01-01T14:03:59;16.20;1.00
827;DHT22;395;48.132;11.608;2023-01-01T14:06:36;16.10;1.00
827;DHT22;395;48.132;11.608;2023-01-01T14:09:11;16.20;1.00
827;DHT22;395;48.132;11.608;2023-01-01T14:11:37;16.20;1.00
827;DHT22;395;48.132;11.608;2023-01-01T14:14:26;16.30;1.00
827;DHT22;395;48.132;11.608;2023-01-01T14:16:58;16.20;1.00
827;DHT22;395;48.132;11.608;2023-01-01T14:19:25;16.30;1.00
827;DHT22;395;48.132;11.608;2023-01-01T14:21:52;16.30;1.00
827;DHT22;395;48.132;11.608;2023-01-01T14:24:20;16.30;1.00
827;DHT22;395;48.132;11.608;2023-01-01T14:26:47;16.30;1.00
827;DHT22;395;48.132;11.608;2023-01-01T14:29:24;16.30;1.00
827;DHT22;395;48.132;11.608;2023-01-01T14:31:50;16.30;1.00
827;DHT22;395;48.132;11.608;2023-01-01T14:34:29;16.40;1.00
827;DHT22;395;48.132;11.608;2023-01-01T14:37:00;16.30;1.00
827;DHT22;395;48.132;11.608;2023-01-01T14:39:32;16.40;1.00
827;DHT22;395;48.132;11.608;2023-01-01T14:42:10;16.40;1.00
827;DHT22;395;48.132;11.608;2023-01-01T14:44:39;16.40;1.00
827;DHT22;395;48.132;11.608;2023-01-01T14:47:25;16.40;1.00
827;DHT22;395;48.132;11.608;2023-01-01T14:49:52;16.40;1.00
827;DHT22;395;48.132;11.608;2023-01-01T14:52:24;16.40;1.00
827;DHT22;395;48.132;11.608;2023-01-01T14:54:52;16.40;1.00
827;DHT22;395;48.132;11.608;2023-01-01T14:57:24;16.40;1.00
827;DHT22;395;48.132;11.608;2023-01-01T14:59:51;16.40;1.00
827;DHT22;395;48.132;11.608;2023-01-01T15:02:25;16.30;1.00
827;DHT22;395;48.132;11.608;2023-01-01T15:04:53;16.30;1.00
827;DHT22;395;48.132;11.608;2023-01-01T15:07:28;16.30;1.00
827;DHT22;395;48.132;11.608;2023-01-01T15:09:57;16.30;1.00
827;DHT22;395;48.132;11.608;2023-01-01T15:12:25;16.20;1.00
827;DHT22;395;48.132;11.608;2023-01-01T15:14:53;16.20;1.00
827;DHT22;395;48.132;11.608;2023-01-01T15:17:24;16.20;1.00
827;DHT22;395;48.132;11.608;2023-01-01T15:20:04;16.20;1.00
827;DHT22;395;48.132;11.608;2023-01-01T15:22:33;16.10;1.00
827;DHT22;395;48.132;11.608;2023-01-01T15:25:01;16.10;1.00
827;DHT22;395;48.132;11.608;2023-01-01T15:27:30;16.00;1.00
827;DHT22;395;48.132;11.608;2023-01-01T15:29:57;16.00;1.00
827;DHT22;395;48.132;11.608;2023-01-01T15:32:43;16.00;1.00
827;DHT22;395;48.132;11.608;2023-01-01T15:37:48;15.90;1.00
827;DHT22;395;48.132;11.608;2023-01-01T15:45:33;15.80;1.00
827;DHT22;395;48.132;11.608;2023-01-01T15:51:02;15.70;1.00
827;DHT22;395;48.132;11.608;2023-01-01T15:53:32;15.70;1.00
827;DHT22;395;48.132;11.608;2023-01-01T15:56:11;15.70;1.00
827;DHT22;395;48.132;11.608;2023-01-01T16:01:25;15.60;1.00
827;DHT22;395;48.132;11.608;2023-01-01T16:03:59;15.60;1.00
827;DHT22;395;48.132;11.608;2023-01-01T16:06:25;15.60;1.00
827;DHT22;395;48.132;11.608;2023-01-01T16:08:51;15.50;1.00
827;DHT22;395;48.132;11.608;2023-01-01T16:11:17;15.40;1.00
827;DHT22;395;48.132;11.608;2023-01-01T16:13:42;15.50;1.00
827;DHT22;395;48.132;11.608;2023-01-01T16:16:24;15.50;1.00
827;DHT22;395;48.132;11.608;2023-01-01T16:18:50;15.40;1.00
827;DHT22;395;48.132;11.608;2023-01-01T16:21:16;15.40;1.00
827;DHT22;395;48.132;11.608;2023-01-01T16:23:42;15.40;1.00
827;DHT22;395;48.132;11.608;2023-01-01T16:26:08;15.40;1.00
827;DHT22;395;48.132;11.608;2023-01-01T16:28:35;15.30;1.00
827;DHT22;395;48.132;11.608;2023-01-01T16:31:00;15.30;1.00
827;DHT22;395;48.132;11.608;2023-01-01T16:33:26;15.30;1.00
827;DHT22;395;48.132;11.608;2023-01-01T16:35:52;15.30;1.00
827;DHT22;395;48.132;11.608;2023-01-01T16:38:17;15.30;1.00
827;DHT22;395;48.132;11.608;2023-01-01T16:40:43;15.20;1.00
827;DHT22;395;48.132;11.608;2023-01-01T16:43:14;15.20;1.00
827;DHT22;395;48.132;11.608;2023-01-01T16:45:40;15.20;1.00
827;DHT22;395;48.132;11.608;2023-01-01T16:48:06;15.20;1.00
827;DHT22;395;48.132;11.608;2023-01-01T16:50:31;15.10;1.00
827;DHT22;395;48.132;11.608;2023-01-01T16:52:57;15.10;1.00
827;DHT22;395;48.132;11.608;2023-01-01T16:55:23;14.90;1.00
827;DHT22;395;48.132;11.608;2023-01-01T16:57:48;15.00;1.00
827;DHT22;395;48.132;11.608;2023-01-01T17:00:14;15.10;1.00
827;DHT22;395;48.132;11.608;2023-01-01T17:02:40;15.00;1.00
827;DHT22;395;48.132;11.608;2023-01-01T17:05:07;15.00;1.00
827;DHT22;395;48.132;11.608;2023-01-01T17:07:33;14.90;1.00
827;DHT22;395;48.132;11.608;2023-01-01T17:09:58;14.90;1.00
827;DHT22;395;48.132;11.608;2023-01-01T17:12:24;14.90;1.00
827;DHT22;395;48.132;11.608;2023-01-01T17:14:49;14.90;1.00
827;DHT22;395;48.132;11.608;2023-01-01T17:17:15;14.80;1.00
827;DHT22;395;48.132;11.608;2023-01-01T17:19:41;14.80;1.00
827;DHT22;395;48.132;11.608;2023-01-01T17:22:06;14.80;1.00
827;DHT22;395;48.132;11.608;2023-01-01T17:24:32;14.80;1.00
827;DHT22;395;48.132;11.608;2023-01-01T17:26:58;14.70;1.00
827;DHT22;395;48.132;11.608;2023-01-01T17:29:24;14.70;1.00
827;DHT22;395;48.132;11.608;2023-01-01T17:31:50;14.70;1.00
827;DHT22;395;48.132;11.608;2023-01-01T17:34:16;14.70;1.00
827;DHT22;395;48.132;11.608;2023-01-01T17:36:43;14.60;1.00
827;DHT22;395;48.132;11.608;2023-01-01T17:39:12;14.60;1.00
827;DHT22;395;48.132;11.608;2023-01-01T17:41:39;14.60;1.00
827;DHT22;395;48.132;11.608;2023-01-01T17:44:05;14.50;1.00
827;DHT22;395;48.132;11.608;2023-01-01T17:46:31;14.50;1.00
827;DHT22;395;48.132;11.608;2023-01-01T17:49:01;14.50;1.00
827;DHT22;395;48.132;11.608;2023-01-01T17:51:27;14.50;1.00
827;DHT22;395;48.132;11.608;2023-01-01T17:53:54;14.50;1.00
827;DHT22;395;48.132;11.608;2023-01-01T17:56:21;14.40;1.00
827;DHT22;395;48.132;11.608;2023-01-01T17:58:48;14.40;1.00
827;DHT22;395;48.132;11.608;2023-01-01T18:03:47;14.30;1.00
827;DHT22;395;48.132;11.608;2023-01-01T18:06:13;14.30;1.00
827;DHT22;395;48.132;11.608;2023-01-01T18:08:38;14.30;1.00
827;DHT22;395;48.132;11.608;2023-01-01T18:11:04;14.20;1.00
827;DHT22;395;48.132;11.608;2023-01-01T18:13:30;14.20;1.00
827;DHT22;395;48.132;11.608;2023-01-01T18:16:03;14.20;1.00
827;DHT22;395;48.132;11.608;2023-01-01T18:18:29;14.20;1.00
827;DHT22;395;48.132;11.608;2023-01-01T18:21:02;14.20;1.00
827;DHT22;395;48.132;11.608;2023-01-01T18:23:36;14.10;1.00
827;DHT22;395;48.132;11.608;2023-01-01T18:26:04;14.10;1.00
827;DHT22;395;48.132;11.608;2023-01-01T18:28:30;14.10;1.00
827;DHT22;395;48.132;11.608;2023-01-01T18:31:04;14.00;1.00
827;DHT22;395;48.132;11.608;2023-01-01T18:33:30;14.00;1.00
827;DHT22;395;48.132;11.608;2023-01-01T18:35:55;14.00;1.00
827;DHT22;395;48.132;11.608;2023-01-01T18:38:22;14.00;1.00
827;DHT22;395;48.132;11.608;2023-01-01T18:43:51;13.90;1.00
827;DHT22;395;48.132;11.608;2023-01-01T18:46:18;13.90;1.00
827;DHT22;395;48.132;11.608;2023-01-01T18:48:44;13.90;1.00
827;DHT22;395;48.132;11.608;2023-01-01T18:51:21;13.90;1.00
827;DHT22;395;48.132;11.608;2023-01-01T18:53:58;13.90;1.00
827;DHT22;395;48.132;11.608;2023-01-01T18:56:24;13.80;1.00
827;DHT22;395;48.132;11.608;2023-01-01T18:58:50;13.80;1.00
827;DHT22;395;48.132;11.608;2023-01-01T19:01:18;13.80;1.00